sensor_id;sensor_type;location;lat;lon;timestamp;P1;durP1;ratioP1;P2;durP2;ratioP2
53961;SDS011;39868;53.398;6.564;2023-05-10T00:02:12;5.63;;;4.47;;
53961;SDS011;39868;53.398;6.564;2023-05-10T00:04:39;6.10;;;4.63;;
53961;SDS011;39868;53.398;6.564;2023-05-10T00:07:06;6.40;;;4.65;;
53961;SDS011;39868;53.398;6.564;2023-05-10T00:09:33;5.70;;;4.85;;
53961;SDS011;39868;53.398;6.564;2023-05-10T00:12:00;5.80;;;4.35;;
53961;SDS011;39868;53.398;6.564;2023-05-10T00:14:28;6.47;;;4.85;;
53961;SDS011;39868;53.398;6.564;2023-05-10T00:16:55;8.38;;;5.05;;
53961;SDS011;39868;53.398;6.564;2023-05-10T00:19:22;7.07;;;5.28;;
53961;SDS011;39868;53.398;6.564;2023-05-10T00:21:49;6.53;;;5.07;;
53961;SDS011;39868;53.398;6.564;2023-05-10T00:24:16;5.65;;;4.97;;
53961;SDS011;39868;53.398;6.564;2023-05-10T00:26:44;6.95;;;5.25;;
53961;SDS011;39868;53.398;6.564;2023-05-10T00:29:13;7.22;;;4.82;;
53961;SDS011;39868;53.398;6.564;2023-05-10T00:31:40;4.93;;;4.20;;
53961;SDS011;39868;53.398;6.564;2023-05-10T00:34:08;5.75;;;3.90;;
53961;SDS011;39868;53.398;6.564;2023-05-10T00:36:35;5.35;;;4.53;;
53961;SDS011;39868;53.398;6.564;2023-05-10T00:39:03;4.53;;;4.00;;
53961;SDS011;39868;53.398;6.564;2023-05-10T00:41:30;4.88;;;4.25;;
53961;SDS011;39868;53.398;6.564;2023-05-10T00:44:01;4.57;;;4.10;;
53961;SDS011;39868;53.398;6.564;2023-05-10T00:46:28;4.25;;;3.85;;
53961;SDS011;39868;53.398;6.564;2023-05-10T00:48:57;6.40;;;4.70;;
53961;SDS011;39868;53.398;6.564;2023-05-10T00:51:24;4.78;;;4.18;;
53961;SDS011;39868;53.398;6.564;2023-05-10T00:53:52;5.03;;;4.53;;
53961;SDS011;39868;53.398;6.564;2023-05-10T00:56:20;8.32;;;4.97;;
53961;SDS011;39868;53.398;6.564;2023-05-10T00:58:50;7.03;;;5.22;;
53961;SDS011;39868;53.398;6.564;2023-05-10T01:01:18;5.55;;;4.40;;
53961;SDS011;39868;53.398;6.564;2023-05-10T01:03:46;5.55;;;4.57;;
53961;SDS011;39868;53.398;6.564;2023-05-10T01:06:14;6.00;;;4.47;;
53961;SDS011;39868;53.398;6.564;2023-05-10T01:08:42;4.88;;;4.28;;
53961;SDS011;39868;53.398;6.564;2023-05-10T01:11:09;5.88;;;4.90;;
53961;SDS011;39868;53.398;6.564;2023-05-10T01:13:37;5.88;;;4.80;;
53961;SDS011;39868;53.398;6.564;2023-05-10T01:16:06;6.28;;;4.68;;
53961;SDS011;39868;53.398;6.564;2023-05-10T01:18:35;5.55;;;4.50;;
53961;SDS011;39868;53.398;6.564;2023-05-10T01:40:48;5.05;;;4.13;;
53961;SDS011;39868;53.398;6.564;2023-05-10T01:43:33;5.65;;;4.32;;
53961;SDS011;39868;53.398;6.564;2023-05-10T01:46:16;4.22;;;3.83;;
53961;SDS011;39868;53.398;6.564;2023-05-10T01:48:51;3.95;;;3.55;;
53961;SDS011;39868;53.398;6.564;2023-05-10T01:51:22;4.22;;;3.67;;
53961;SDS011;39868;53.398;6.564;2023-05-10T01:53:54;4.38;;;3.83;;
53961;SDS011;39868;53.398;6.564;2023-05-10T01:56:28;4.00;;;3.63;;
53961;SDS011;39868;53.398;6.564;2023-05-10T01:58:58;4.53;;;4.13;;
53961;SDS011;39868;53.398;6.564;2023-05-10T02:01:30;3.85;;;3.45;;
53961;SDS011;39868;53.398;6.564;2023-05-10T02:04:00;4.18;;;3.78;;
53961;SDS011;39868;53.398;6.564;2023-05-10T02:06:29;3.92;;;3.60;;
53961;SDS011;39868;53.398;6.564;2023-05-10T02:08:59;3.97;;;3.58;;
53961;SDS011;39868;53.398;6.564;2023-05-10T02:11:29;4.15;;;3.75;;
53961;SDS011;39868;53.398;6.564;2023-05-10T02:13:57;4.95;;;3.88;;
53961;SDS011;39868;53.398;6.564;2023-05-10T02:16:27;4.07;;;3.78;;
53961;SDS011;39868;53.398;6.564;2023-05-10T02:18:58;4.55;;;4.00;;
53961;SDS011;39868;53.398;6.564;2023-05-10T02:21:28;3.90;;;3.60;;
53961;SDS011;39868;53.398;6.564;2023-05-10T02:23:57;4.20;;;3.70;;
53961;SDS011;39868;53.398;6.564;2023-05-10T02:26:27;4.20;;;3.80;;
53961;SDS011;39868;53.398;6.564;2023-05-10T02:28:56;3.85;;;3.55;;
53961;SDS011;39868;53.398;6.564;2023-05-10T02:31:24;4.10;;;3.80;;
53961;SDS011;39868;53.398;6.564;2023-05-10T02:33:52;4.32;;;3.83;;
53961;SDS011;39868;53.398;6.564;2023-05-10T02:36:20;4.13;;;3.75;;
53961;SDS011;39868;53.398;6.564;2023-05-10T02:38:48;4.88;;;4.05;;
53961;SDS011;39868;53.398;6.564;2023-05-10T02:41:18;5.57;;;4.47;;
53961;SDS011;39868;53.398;6.564;2023-05-10T02:43:50;4.68;;;3.92;;
53961;SDS011;39868;53.398;6.564;2023-05-10T02:46:18;4.30;;;3.90;;
53961;SDS011;39868;53.398;6.564;2023-05-10T02:48:46;4.53;;;4.00;;
53961;SDS011;39868;53.398;6.564;2023-05-10T02:51:13;4.68;;;4.10;;
53961;SDS011;39868;53.398;6.564;2023-05-10T02:53:45;4.35;;;3.95;;
53961;SDS011;39868;53.398;6.564;2023-05-10T02:56:14;4.07;;;3.67;;
53961;SDS011;39868;53.398;6.564;2023-05-10T02:58:46;4.13;;;3.55;;
53961;SDS011;39868;53.398;6.564;2023-05-10T03:01:14;4.53;;;3.80;;
53961;SDS011;39868;53.398;6.564;2023-05-10T03:03:42;5.05;;;3.95;;
53961;SDS011;39868;53.398;6.564;2023-05-10T03:06:09;4.22;;;3.83;;
53961;SDS011;39868;53.398;6.564;2023-05-10T03:08:36;6.00;;;4.63;;
53961;SDS011;39868;53.398;6.564;2023-05-10T03:13:57;5.68;;;4.43;;
53961;SDS011;39868;53.398;6.564;2023-05-10T03:16:29;5.15;;;4.00;;
53961;SDS011;39868;53.398;6.564;2023-05-10T03:19:22;5.85;;;4.85;;
53961;SDS011;39868;53.398;6.564;2023-05-10T03:21:54;5.65;;;4.20;;
53961;SDS011;39868;53.398;6.564;2023-05-10T03:24:32;6.22;;;4.60;;
53961;SDS011;39868;53.398;6.564;2023-05-10T03:27:02;5.40;;;4.28;;
53961;SDS011;39868;53.398;6.564;2023-05-10T03:29:31;7.13;;;4.78;;
53961;SDS011;39868;53.398;6.564;2023-05-10T03:31:59;7.72;;;5.03;;
53961;SDS011;39868;53.398;6.564;2023-05-10T03:34:30;5.90;;;4.35;;
53961;SDS011;39868;53.398;6.564;2023-05-10T03:36:58;7.82;;;4.80;;
53961;SDS011;39868;53.398;6.564;2023-05-10T03:39:35;6.30;;;4.78;;
53961;SDS011;39868;53.398;6.564;2023-05-10T03:42:07;8.20;;;5.07;;
53961;SDS011;39868;53.398;6.564;2023-05-10T03:44:34;6.38;;;4.53;;
53961;SDS011;39868;53.398;6.564;2023-05-10T03:47:01;7.20;;;4.70;;
53961;SDS011;39868;53.398;6.564;2023-05-10T03:49:29;6.68;;;4.72;;
53961;SDS011;39868;53.398;6.564;2023-05-10T03:51:56;7.03;;;4.75;;
53961;SDS011;39868;53.398;6.564;2023-05-10T03:54:23;6.68;;;5.18;;
53961;SDS011;39868;53.398;6.564;2023-05-10T03:56:50;5.90;;;4.82;;
53961;SDS011;39868;53.398;6.564;2023-05-10T03:59:18;6.45;;;5.00;;
53961;SDS011;39868;53.398;6.564;2023-05-10T04:01:46;5.88;;;4.90;;
53961;SDS011;39868;53.398;6.564;2023-05-10T04:04:13;6.00;;;4.80;;
53961;SDS011;39868;53.398;6.564;2023-05-10T04:06:40;5.93;;;4.82;;
53961;SDS011;39868;53.398;6.564;2023-05-10T04:09:08;5.70;;;5.07;;
53961;SDS011;39868;53.398;6.564;2023-05-10T04:11:35;6.30;;;5.22;;
53961;SDS011;39868;53.398;6.564;2023-05-10T04:14:02;6.18;;;4.40;;
53961;SDS011;39868;53.398;6.564;2023-05-10T04:16:29;5.78;;;4.80;;
53961;SDS011;39868;53.398;6.564;2023-05-10T04:18:57;4.78;;;4.35;;
53961;SDS011;39868;53.398;6.564;2023-05-10T04:21:24;6.05;;;4.65;;
53961;SDS011;39868;53.398;6.564;2023-05-10T04:23:51;5.63;;;4.72;;
53961;SDS011;39868;53.398;6.564;2023-05-10T04:26:18;6.25;;;4.47;;
53961;SDS011;39868;53.398;6.564;2023-05-10T04:28:46;4.50;;;4.10;;
53961;SDS011;39868;53.398;6.564;2023-05-10T04:31:13;4.68;;;4.28;;
53961;SDS011;39868;53.398;6.564;2023-05-10T04:33:41;4.72;;;4.13;;
53961;SDS011;39868;53.398;6.564;2023-05-10T04:36:08;6.03;;;4.32;;
53961;SDS011;39868;53.398;6.564;2023-05-10T04:38:35;4.90;;;4.18;;
53961;SDS011;39868;53.398;6.564;2023-05-10T04:41:06;4.85;;;4.28;;
53961;SDS011;39868;53.398;6.564;2023-05-10T04:43:36;4.78;;;4.18;;
53961;SDS011;39868;53.398;6.564;2023-05-10T04:46:04;4.78;;;4.20;;
53961;SDS011;39868;53.398;6.564;2023-05-10T04:48:32;4.72;;;4.03;;
53961;SDS011;39868;53.398;6.564;2023-05-10T04:50:59;4.70;;;4.13;;
53961;SDS011;39868;53.398;6.564;2023-05-10T04:53:26;4.32;;;3.92;;
53961;SDS011;39868;53.398;6.564;2023-05-10T04:55:53;4.07;;;3.67;;
53961;SDS011;39868;53.398;6.564;2023-05-10T04:58:21;4.07;;;3.60;;
53961;SDS011;39868;53.398;6.564;2023-05-10T05:00:48;3.88;;;3.50;;
53961;SDS011;39868;53.398;6.564;2023-05-10T05:03:15;3.85;;;3.55;;
53961;SDS011;39868;53.398;6.564;2023-05-10T05:05:43;3.10;;;2.90;;
53961;SDS011;39868;53.398;6.564;2023-05-10T05:08:11;2.97;;;2.78;;
53961;SDS011;39868;53.398;6.564;2023-05-10T05:10:39;2.20;;;2.10;;
53961;SDS011;39868;53.398;6.564;2023-05-10T05:13:06;2.33;;;2.22;;
53961;SDS011;39868;53.398;6.564;2023-05-10T05:15:33;2.08;;;1.98;;
53961;SDS011;39868;53.398;6.564;2023-05-10T05:18:00;2.20;;;2.10;;
53961;SDS011;39868;53.398;6.564;2023-05-10T05:20:28;2.00;;;1.90;;
53961;SDS011;39868;53.398;6.564;2023-05-10T05:22:58;1.90;;;1.80;;
53961;SDS011;39868;53.398;6.564;2023-05-10T05:25:25;1.75;;;1.75;;
53961;SDS011;39868;53.398;6.564;2023-05-10T05:27:52;1.73;;;1.70;;
53961;SDS011;39868;53.398;6.564;2023-05-10T05:30:19;1.70;;;1.70;;
53961;SDS011;39868;53.398;6.564;2023-05-10T05:32:46;1.80;;;1.70;;
53961;SDS011;39868;53.398;6.564;2023-05-10T05:35:13;1.90;;;1.80;;
53961;SDS011;39868;53.398;6.564;2023-05-10T05:37:41;1.90;;;1.80;;
53961;SDS011;39868;53.398;6.564;2023-05-10T05:40:11;1.75;;;1.75;;
53961;SDS011;39868;53.398;6.564;2023-05-10T05:42:40;1.70;;;1.70;;
53961;SDS011;39868;53.398;6.564;2023-05-10T05:45:08;1.58;;;1.58;;
53961;SDS011;39868;53.398;6.564;2023-05-10T05:47:39;1.90;;;1.80;;
53961;SDS011;39868;53.398;6.564;2023-05-10T05:50:07;1.40;;;1.40;;
53961;SDS011;39868;53.398;6.564;2023-05-10T05:52:34;1.50;;;1.40;;
53961;SDS011;39868;53.398;6.564;2023-05-10T05:55:02;1.98;;;1.88;;
53961;SDS011;39868;53.398;6.564;2023-05-10T05:57:30;2.47;;;2.38;;
53961;SDS011;39868;53.398;6.564;2023-05-10T05:59:57;2.70;;;2.60;;
53961;SDS011;39868;53.398;6.564;2023-05-10T06:02:24;3.30;;;3.10;;
53961;SDS011;39868;53.398;6.564;2023-05-10T06:04:52;3.42;;;3.15;;
53961;SDS011;39868;53.398;6.564;2023-05-10T06:07:19;3.50;;;3.30;;
53961;SDS011;39868;53.398;6.564;2023-05-10T06:09:46;4.40;;;4.07;;
53961;SDS011;39868;53.398;6.564;2023-05-10T06:12:13;3.65;;;3.38;;
53961;SDS011;39868;53.398;6.564;2023-05-10T06:14:40;3.70;;;3.40;;
53961;SDS011;39868;53.398;6.564;2023-05-10T06:17:08;4.90;;;4.13;;
53961;SDS011;39868;53.398;6.564;2023-05-10T06:19:35;4.72;;;4.38;;
53961;SDS011;39868;53.398;6.564;2023-05-10T06:22:03;6.15;;;5.55;;
53961;SDS011;39868;53.398;6.564;2023-05-10T06:24:30;5.15;;;4.65;;
53961;SDS011;39868;53.398;6.564;2023-05-10T06:26:57;4.50;;;4.07;;
53961;SDS011;39868;53.398;6.564;2023-05-10T06:29:26;5.25;;;4.47;;
53961;SDS011;39868;53.398;6.564;2023-05-10T06:31:53;5.38;;;4.88;;
53961;SDS011;39868;53.398;6.564;2023-05-10T06:34:21;4.03;;;3.72;;
53961;SDS011;39868;53.398;6.564;2023-05-10T06:36:48;3.80;;;3.60;;
53961;SDS011;39868;53.398;6.564;2023-05-10T06:39:15;4.05;;;3.75;;
53961;SDS011;39868;53.398;6.564;2023-05-10T06:41:42;3.20;;;3.00;;
53961;SDS011;39868;53.398;6.564;2023-05-10T06:44:09;3.70;;;3.40;;
53961;SDS011;39868;53.398;6.564;2023-05-10T06:46:37;4.10;;;3.80;;
53961;SDS011;39868;53.398;6.564;2023-05-10T06:49:04;3.58;;;3.28;;
53961;SDS011;39868;53.398;6.564;2023-05-10T06:51:31;4.43;;;4.00;;
53961;SDS011;39868;53.398;6.564;2023-05-10T06:53:59;4.57;;;4.18;;
53961;SDS011;39868;53.398;6.564;2023-05-10T06:56:26;4.18;;;3.80;;
53961;SDS011;39868;53.398;6.564;2023-05-10T06:58:53;4.30;;;3.90;;
53961;SDS011;39868;53.398;6.564;2023-05-10T07:01:20;3.85;;;3.65;;
53961;SDS011;39868;53.398;6.564;2023-05-10T07:03:48;4.00;;;3.00;;
53961;SDS011;39868;53.398;6.564;2023-05-10T07:06:15;3.78;;;2.90;;
53961;SDS011;39868;53.398;6.564;2023-05-10T07:08:58;2.80;;;2.60;;
53961;SDS011;39868;53.398;6.564;2023-05-10T07:11:25;2.88;;;2.63;;
53961;SDS011;39868;53.398;6.564;2023-05-10T07:13:53;2.65;;;2.45;;
53961;SDS011;39868;53.398;6.564;2023-05-10T07:16:20;2.83;;;2.60;;
53961;SDS011;39868;53.398;6.564;2023-05-10T07:18:48;3.85;;;2.90;;
53961;SDS011;39868;53.398;6.564;2023-05-10T07:21:16;2.45;;;2.28;;
53961;SDS011;39868;53.398;6.564;2023-05-10T07:23:44;2.75;;;2.55;;
53961;SDS011;39868;53.398;6.564;2023-05-10T07:26:11;2.80;;;2.55;;
53961;SDS011;39868;53.398;6.564;2023-05-10T07:28:38;3.50;;;2.75;;
53961;SDS011;39868;53.398;6.564;2023-05-10T07:31:05;3.40;;;2.70;;
53961;SDS011;39868;53.398;6.564;2023-05-10T07:33:33;3.13;;;2.70;;
53961;SDS011;39868;53.398;6.564;2023-05-10T07:36:00;3.15;;;2.67;;
53961;SDS011;39868;53.398;6.564;2023-05-10T07:38:27;4.07;;;2.42;;
53961;SDS011;39868;53.398;6.564;2023-05-10T07:40:54;3.40;;;3.00;;
53961;SDS011;39868;53.398;6.564;2023-05-10T07:43:21;2.28;;;2.10;;
53961;SDS011;39868;53.398;6.564;2023-05-10T07:45:48;3.15;;;2.30;;
53961;SDS011;39868;53.398;6.564;2023-05-10T07:48:15;2.70;;;2.50;;
53961;SDS011;39868;53.398;6.564;2023-05-10T07:50:43;2.28;;;2.13;;
53961;SDS011;39868;53.398;6.564;2023-05-10T07:53:10;3.83;;;2.60;;
53961;SDS011;39868;53.398;6.564;2023-05-10T07:55:38;2.58;;;2.38;;
53961;SDS011;39868;53.398;6.564;2023-05-10T07:58:06;3.10;;;2.80;;
53961;SDS011;39868;53.398;6.564;2023-05-10T08:00:33;2.67;;;2.47;;
53961;SDS011;39868;53.398;6.564;2023-05-10T08:03:00;2.88;;;2.67;;
53961;SDS011;39868;53.398;6.564;2023-05-10T08:05:28;2.90;;;2.70;;
53961;SDS011;39868;53.398;6.564;2023-05-10T08:07:55;2.85;;;2.65;;
53961;SDS011;39868;53.398;6.564;2023-05-10T08:10:22;2.58;;;2.40;;
53961;SDS011;39868;53.398;6.564;2023-05-10T08:12:50;2.50;;;2.30;;
53961;SDS011;39868;53.398;6.564;2023-05-10T08:15:18;3.05;;;2.75;;
53961;SDS011;39868;53.398;6.564;2023-05-10T08:17:52;2.88;;;2.67;;
53961;SDS011;39868;53.398;6.564;2023-05-10T08:20:19;2.80;;;2.60;;
53961;SDS011;39868;53.398;6.564;2023-05-10T08:22:47;2.60;;;2.50;;
53961;SDS011;39868;53.398;6.564;2023-05-10T08:25:17;2.78;;;2.63;;
53961;SDS011;39868;53.398;6.564;2023-05-10T08:27:45;2.53;;;2.42;;
53961;SDS011;39868;53.398;6.564;2023-05-10T08:30:12;2.80;;;2.60;;
53961;SDS011;39868;53.398;6.564;2023-05-10T08:32:39;2.80;;;2.60;;
53961;SDS011;39868;53.398;6.564;2023-05-10T08:35:07;2.90;;;2.70;;
53961;SDS011;39868;53.398;6.564;2023-05-10T08:37:34;3.03;;;2.83;;
53961;SDS011;39868;53.398;6.564;2023-05-10T08:40:01;2.90;;;2.70;;
53961;SDS011;39868;53.398;6.564;2023-05-10T08:42:30;3.20;;;2.63;;
53961;SDS011;39868;53.398;6.564;2023-05-10T08:45:00;2.38;;;2.28;;
53961;SDS011;39868;53.398;6.564;2023-05-10T08:47:29;2.63;;;2.42;;
53961;SDS011;39868;53.398;6.564;2023-05-10T08:49:56;2.75;;;2.55;;
53961;SDS011;39868;53.398;6.564;2023-05-10T08:52:25;2.47;;;2.38;;
53961;SDS011;39868;53.398;6.564;2023-05-10T08:54:54;2.70;;;2.50;;
53961;SDS011;39868;53.398;6.564;2023-05-10T08:57:21;3.10;;;2.60;;
53961;SDS011;39868;53.398;6.564;2023-05-10T08:59:49;2.80;;;2.60;;
53961;SDS011;39868;53.398;6.564;2023-05-10T09:02:16;2.95;;;2.75;;
53961;SDS011;39868;53.398;6.564;2023-05-10T09:04:44;3.45;;;2.92;;
53961;SDS011;39868;53.398;6.564;2023-05-10T09:07:12;2.88;;;2.67;;
53961;SDS011;39868;53.398;6.564;2023-05-10T09:09:39;2.80;;;2.60;;
53961;SDS011;39868;53.398;6.564;2023-05-10T09:12:06;3.13;;;2.78;;
53961;SDS011;39868;53.398;6.564;2023-05-10T09:14:37;2.83;;;2.63;;
53961;SDS011;39868;53.398;6.564;2023-05-10T09:17:06;2.90;;;2.70;;
53961;SDS011;39868;53.398;6.564;2023-05-10T09:19:33;2.80;;;2.60;;
53961;SDS011;39868;53.398;6.564;2023-05-10T09:22:00;2.90;;;2.70;;
53961;SDS011;39868;53.398;6.564;2023-05-10T09:24:29;2.88;;;2.58;;
53961;SDS011;39868;53.398;6.564;2023-05-10T09:26:57;3.05;;;2.85;;
53961;SDS011;39868;53.398;6.564;2023-05-10T09:29:38;3.15;;;2.95;;
53961;SDS011;39868;53.398;6.564;2023-05-10T09:32:09;3.00;;;2.80;;
53961;SDS011;39868;53.398;6.564;2023-05-10T09:34:36;4.53;;;2.70;;
53961;SDS011;39868;53.398;6.564;2023-05-10T09:37:06;3.20;;;2.90;;
53961;SDS011;39868;53.398;6.564;2023-05-10T09:39:35;3.30;;;3.00;;
53961;SDS011;39868;53.398;6.564;2023-05-10T09:42:04;3.10;;;2.90;;
53961;SDS011;39868;53.398;6.564;2023-05-10T09:44:35;2.92;;;2.72;;
53961;SDS011;39868;53.398;6.564;2023-05-10T09:47:03;3.50;;;3.20;;
53961;SDS011;39868;53.398;6.564;2023-05-10T09:49:30;3.28;;;3.00;;
53961;SDS011;39868;53.398;6.564;2023-05-10T09:54:29;2.97;;;2.77;;
53961;SDS011;39868;53.398;6.564;2023-05-10T09:56:57;3.03;;;2.83;;
53961;SDS011;39868;53.398;6.564;2023-05-10T09:59:25;3.28;;;2.97;;
53961;SDS011;39868;53.398;6.564;2023-05-10T10:01:59;2.85;;;2.65;;
53961;SDS011;39868;53.398;6.564;2023-05-10T10:04:27;3.20;;;3.00;;
53961;SDS011;39868;53.398;6.564;2023-05-10T10:07:04;3.03;;;2.80;;
53961;SDS011;39868;53.398;6.564;2023-05-10T10:09:32;3.00;;;2.80;;
53961;SDS011;39868;53.398;6.564;2023-05-10T10:12:03;2.70;;;2.50;;
53961;SDS011;39868;53.398;6.564;2023-05-10T10:14:31;2.83;;;2.63;;
53961;SDS011;39868;53.398;6.564;2023-05-10T10:16:59;3.00;;;2.80;;
53961;SDS011;39868;53.398;6.564;2023-05-10T10:19:30;3.13;;;2.90;;
53961;SDS011;39868;53.398;6.564;2023-05-10T10:22:00;3.00;;;2.80;;
53961;SDS011;39868;53.398;6.564;2023-05-10T10:24:27;2.72;;;2.53;;
53961;SDS011;39868;53.398;6.564;2023-05-10T10:26:55;3.00;;;2.80;;
53961;SDS011;39868;53.398;6.564;2023-05-10T10:35:20;2.92;;;2.72;;
53961;SDS011;39868;53.398;6.564;2023-05-10T10:37:48;2.67;;;2.47;;
53961;SDS011;39868;53.398;6.564;2023-05-10T10:40:23;3.08;;;2.88;;
53961;SDS011;39868;53.398;6.564;2023-05-10T10:42:52;3.08;;;2.85;;
53961;SDS011;39868;53.398;6.564;2023-05-10T10:45:21;3.88;;;3.58;;
53961;SDS011;39868;53.398;6.564;2023-05-10T10:48:14;3.83;;;3.22;;
53961;SDS011;39868;53.398;6.564;2023-05-10T10:50:55;3.70;;;3.40;;
53961;SDS011;39868;53.398;6.564;2023-05-10T10:53:27;3.63;;;3.33;;
53961;SDS011;39868;53.398;6.564;2023-05-10T10:58:37;4.07;;;3.17;;
53961;SDS011;39868;53.398;6.564;2023-05-10T11:01:12;3.78;;;3.35;;
53961;SDS011;39868;53.398;6.564;2023-05-10T11:03:40;5.68;;;3.65;;
53961;SDS011;39868;53.398;6.564;2023-05-10T11:06:07;3.42;;;3.13;;
53961;SDS011;39868;53.398;6.564;2023-05-10T11:08:41;5.32;;;3.30;;
53961;SDS011;39868;53.398;6.564;2023-05-10T11:11:14;3.97;;;3.67;;
53961;SDS011;39868;53.398;6.564;2023-05-10T11:13:45;6.18;;;4.30;;
53961;SDS011;39868;53.398;6.564;2023-05-10T11:16:18;5.28;;;3.95;;
53961;SDS011;39868;53.398;6.564;2023-05-10T11:19:01;4.80;;;3.80;;
53961;SDS011;39868;53.398;6.564;2023-05-10T11:21:33;5.30;;;4.10;;
53961;SDS011;39868;53.398;6.564;2023-05-10T11:24:14;5.53;;;3.92;;
53961;SDS011;39868;53.398;6.564;2023-05-10T11:26:43;6.75;;;4.22;;
53961;SDS011;39868;53.398;6.564;2023-05-10T11:29:12;4.15;;;3.70;;
53961;SDS011;39868;53.398;6.564;2023-05-10T11:31:46;5.10;;;3.80;;
53961;SDS011;39868;53.398;6.564;2023-05-10T11:36:56;5.53;;;3.93;;
53961;SDS011;39868;53.398;6.564;2023-05-10T11:39:27;6.82;;;3.83;;
53961;SDS011;39868;53.398;6.564;2023-05-10T11:41:56;4.43;;;3.87;;
53961;SDS011;39868;53.398;6.564;2023-05-10T11:44:28;6.00;;;3.90;;
53961;SDS011;39868;53.398;6.564;2023-05-10T11:46:59;6.10;;;4.70;;
53961;SDS011;39868;53.398;6.564;2023-05-10T11:49:27;5.85;;;4.40;;
53961;SDS011;39868;53.398;6.564;2023-05-10T11:52:07;6.45;;;4.57;;
53961;SDS011;39868;53.398;6.564;2023-05-10T11:54:34;6.68;;;4.70;;
53961;SDS011;39868;53.398;6.564;2023-05-10T11:57:02;6.57;;;5.05;;
53961;SDS011;39868;53.398;6.564;2023-05-10T11:59:30;7.03;;;4.82;;
53961;SDS011;39868;53.398;6.564;2023-05-10T12:01:57;7.63;;;5.32;;
53961;SDS011;39868;53.398;6.564;2023-05-10T12:04:24;9.75;;;5.30;;
53961;SDS011;39868;53.398;6.564;2023-05-10T12:06:56;7.25;;;5.00;;
53961;SDS011;39868;53.398;6.564;2023-05-10T12:09:23;8.63;;;5.22;;
53961;SDS011;39868;53.398;6.564;2023-05-10T12:12:08;8.05;;;5.20;;
53961;SDS011;39868;53.398;6.564;2023-05-10T12:14:36;7.75;;;5.57;;
53961;SDS011;39868;53.398;6.564;2023-05-10T12:17:03;7.18;;;5.35;;
53961;SDS011;39868;53.398;6.564;2023-05-10T12:19:37;8.23;;;5.88;;
53961;SDS011;39868;53.398;6.564;2023-05-10T12:22:05;8.32;;;5.85;;
53961;SDS011;39868;53.398;6.564;2023-05-10T12:24:36;8.48;;;5.30;;
53961;SDS011;39868;53.398;6.564;2023-05-10T12:27:09;7.75;;;5.38;;
53961;SDS011;39868;53.398;6.564;2023-05-10T12:29:41;6.03;;;4.72;;
53961;SDS011;39868;53.398;6.564;2023-05-10T12:32:11;6.85;;;5.00;;
53961;SDS011;39868;53.398;6.564;2023-05-10T12:34:38;9.25;;;5.10;;
53961;SDS011;39868;53.398;6.564;2023-05-10T12:37:05;6.70;;;5.30;;
53961;SDS011;39868;53.398;6.564;2023-05-10T12:39:39;7.40;;;5.03;;
53961;SDS011;39868;53.398;6.564;2023-05-10T12:42:07;7.35;;;5.30;;
53961;SDS011;39868;53.398;6.564;2023-05-10T12:44:35;5.95;;;4.53;;
53961;SDS011;39868;53.398;6.564;2023-05-10T12:47:02;6.82;;;5.13;;
53961;SDS011;39868;53.398;6.564;2023-05-10T12:49:29;6.20;;;4.95;;
53961;SDS011;39868;53.398;6.564;2023-05-10T12:51:57;6.90;;;4.68;;
53961;SDS011;39868;53.398;6.564;2023-05-10T12:54:24;5.63;;;3.80;;
53961;SDS011;39868;53.398;6.564;2023-05-10T12:56:51;6.03;;;4.13;;
53961;SDS011;39868;53.398;6.564;2023-05-10T12:59:18;6.32;;;4.20;;
53961;SDS011;39868;53.398;6.564;2023-05-10T13:01:46;4.78;;;3.97;;
53961;SDS011;39868;53.398;6.564;2023-05-10T13:04:13;4.95;;;3.90;;
53961;SDS011;39868;53.398;6.564;2023-05-10T13:06:40;4.78;;;4.05;;
53961;SDS011;39868;53.398;6.564;2023-05-10T13:09:07;4.60;;;3.90;;
53961;SDS011;39868;53.398;6.564;2023-05-10T13:11:34;4.20;;;3.90;;
53961;SDS011;39868;53.398;6.564;2023-05-10T13:14:01;4.38;;;3.83;;
53961;SDS011;39868;53.398;6.564;2023-05-10T13:16:29;4.60;;;4.03;;
53961;SDS011;39868;53.398;6.564;2023-05-10T13:18:58;4.32;;;3.92;;
53961;SDS011;39868;53.398;6.564;2023-05-10T13:21:25;5.03;;;4.05;;
53961;SDS011;39868;53.398;6.564;2023-05-10T13:23:53;4.75;;;3.40;;
53961;SDS011;39868;53.398;6.564;2023-05-10T13:26:20;4.68;;;4.07;;
53961;SDS011;39868;53.398;6.564;2023-05-10T13:28:47;5.03;;;3.85;;
53961;SDS011;39868;53.398;6.564;2023-05-10T13:31:16;4.63;;;4.18;;
53961;SDS011;39868;53.398;6.564;2023-05-10T13:33:43;5.57;;;4.78;;
53961;SDS011;39868;53.398;6.564;2023-05-10T13:36:10;4.45;;;4.05;;
53961;SDS011;39868;53.398;6.564;2023-05-10T13:38:37;4.80;;;4.20;;
53961;SDS011;39868;53.398;6.564;2023-05-10T13:41:04;5.35;;;4.68;;
53961;SDS011;39868;53.398;6.564;2023-05-10T13:43:31;5.22;;;4.72;;
53961;SDS011;39868;53.398;6.564;2023-05-10T13:45:58;6.25;;;4.43;;
53961;SDS011;39868;53.398;6.564;2023-05-10T13:48:27;4.97;;;4.05;;
53961;SDS011;39868;53.398;6.564;2023-05-10T13:50:54;6.00;;;4.63;;
53961;SDS011;39868;53.398;6.564;2023-05-10T13:53:21;5.45;;;4.65;;
53961;SDS011;39868;53.398;6.564;2023-05-10T13:55:48;7.10;;;4.95;;
53961;SDS011;39868;53.398;6.564;2023-05-10T13:58:15;9.60;;;5.40;;
53961;SDS011;39868;53.398;6.564;2023-05-10T14:00:42;12.48;;;7.30;;
53961;SDS011;39868;53.398;6.564;2023-05-10T14:03:09;12.02;;;7.25;;
53961;SDS011;39868;53.398;6.564;2023-05-10T14:05:38;11.93;;;7.65;;
53961;SDS011;39868;53.398;6.564;2023-05-10T14:08:05;12.63;;;7.60;;
53961;SDS011;39868;53.398;6.564;2023-05-10T14:10:32;10.88;;;7.28;;
53961;SDS011;39868;53.398;6.564;2023-05-10T14:12:59;12.07;;;7.13;;
53961;SDS011;39868;53.398;6.564;2023-05-10T14:15:27;10.45;;;7.18;;
53961;SDS011;39868;53.398;6.564;2023-05-10T14:17:54;11.18;;;7.63;;
53961;SDS011;39868;53.398;6.564;2023-05-10T14:20:21;11.05;;;6.72;;
53961;SDS011;39868;53.398;6.564;2023-05-10T14:22:48;11.45;;;7.10;;
53961;SDS011;39868;53.398;6.564;2023-05-10T14:25:16;9.68;;;6.55;;
53961;SDS011;39868;53.398;6.564;2023-05-10T14:27:44;11.27;;;6.85;;
53961;SDS011;39868;53.398;6.564;2023-05-10T14:30:11;10.52;;;7.05;;
53961;SDS011;39868;53.398;6.564;2023-05-10T14:32:39;8.30;;;6.60;;
53961;SDS011;39868;53.398;6.564;2023-05-10T14:35:06;7.47;;;5.82;;
53961;SDS011;39868;53.398;6.564;2023-05-10T14:37:37;7.55;;;5.85;;
53961;SDS011;39868;53.398;6.564;2023-05-10T14:40:05;6.80;;;5.65;;
53961;SDS011;39868;53.398;6.564;2023-05-10T14:42:33;5.65;;;4.95;;
53961;SDS011;39868;53.398;6.564;2023-05-10T14:45:00;5.18;;;4.68;;
53961;SDS011;39868;53.398;6.564;2023-05-10T14:47:27;5.93;;;5.00;;
53961;SDS011;39868;53.398;6.564;2023-05-10T14:49:54;5.75;;;4.60;;
53961;SDS011;39868;53.398;6.564;2023-05-10T14:52:23;6.05;;;5.07;;
53961;SDS011;39868;53.398;6.564;2023-05-10T14:54:50;5.28;;;4.70;;
53961;SDS011;39868;53.398;6.564;2023-05-10T14:57:17;4.38;;;3.97;;
53961;SDS011;39868;53.398;6.564;2023-05-10T14:59:44;4.60;;;4.20;;
53961;SDS011;39868;53.398;6.564;2023-05-10T15:02:12;4.85;;;4.30;;
53961;SDS011;39868;53.398;6.564;2023-05-10T15:04:40;4.95;;;4.40;;
53961;SDS011;39868;53.398;6.564;2023-05-10T15:07:08;4.90;;;4.32;;
53961;SDS011;39868;53.398;6.564;2023-05-10T15:09:35;4.82;;;4.00;;
53961;SDS011;39868;53.398;6.564;2023-05-10T15:12:02;4.97;;;4.53;;
53961;SDS011;39868;53.398;6.564;2023-05-10T15:14:29;5.22;;;4.72;;
53961;SDS011;39868;53.398;6.564;2023-05-10T15:16:59;4.47;;;4.05;;
53961;SDS011;39868;53.398;6.564;2023-05-10T15:19:26;4.28;;;3.88;;
53961;SDS011;39868;53.398;6.564;2023-05-10T15:21:55;4.60;;;3.97;;
53961;SDS011;39868;53.398;6.564;2023-05-10T15:24:22;4.28;;;3.90;;
53961;SDS011;39868;53.398;6.564;2023-05-10T15:26:49;4.75;;;4.05;;
53961;SDS011;39868;53.398;6.564;2023-05-10T15:29:16;4.93;;;4.20;;
53961;SDS011;39868;53.398;6.564;2023-05-10T15:31:46;4.50;;;4.10;;
53961;SDS011;39868;53.398;6.564;2023-05-10T15:34:14;4.38;;;3.72;;